createdAt,value
2019-04-07T00:02:22.494Z,74.89
2019-04-07T00:05:11.118Z,74.39
2019-04-07T00:07:33.382Z,74.03
2019-04-07T00:10:08.424Z,74.00
2019-04-07T00:12:39.143Z,74.33
2019-04-07T00:15:10.422Z,73.88
2019-04-07T00:17:53.143Z,74.34
2019-04-07T00:20:23.993Z,74.09
2019-04-07T00:22:55.226Z,73.74
2019-04-07T00:25:25.938Z,73.48
2019-04-07T00:27:56.558Z,72.67
2019-04-07T00:30:27.236Z,72.46
2019-04-07T00:32:58.391Z,72.95
2019-04-07T00:35:32.622Z,72.88
2019-04-07T00:38:02.523Z,71.64
2019-04-07T00:40:33.841Z,72.24
2019-04-07T00:43:04.582Z,72.26
2019-04-07T00:45:35.408Z,72.30
2019-04-07T00:48:09.124Z,71.58
2019-04-07T00:50:40.525Z,72.40
2019-04-07T00:53:35.703Z,72.08
2019-04-07T00:56:06.400Z,72.68
2019-04-07T00:58:37.012Z,72.44
2019-04-07T01:01:09.112Z,71.63
2019-04-07T01:03:40.272Z,70.98
2019-04-07T01:06:11.484Z,71.55
2019-04-07T01:08:42.488Z,71.39
2019-04-07T01:11:19.094Z,71.05
2019-04-07T01:13:49.759Z,70.71
2019-04-07T01:16:20.799Z,71.13
2019-04-07T01:18:51.989Z,71.57
2019-04-07T01:21:37.255Z,71.65
2019-04-07T01:24:08.934Z,71.04
2019-04-07T01:26:40.502Z,71.75
2019-04-07T01:29:11.088Z,71.36
2019-04-07T01:31:43.098Z,71.39
2019-04-07T01:34:19.677Z,72.23
2019-04-07T01:36:50.326Z,72.37
2019-04-07T01:39:20.917Z,72.49
2019-04-07T01:41:56.429Z,73.12
2019-04-07T01:44:39.811Z,73.27
2019-04-07T01:47:22.277Z,73.39
2019-04-07T01:50:16.198Z,73.43
2019-04-07T01:52:51.915Z,73.63
2019-04-07T01:55:42.279Z,73.70
2019-04-07T01:58:18.472Z,73.92
2019-04-07T02:01:08.152Z,73.94
2019-04-07T02:03:43.271Z,73.75
2019-04-07T02:06:31.126Z,73.90
2019-04-07T02:09:03.525Z,73.80
2019-04-07T02:11:52.984Z,73.74
2019-04-07T02:14:25.462Z,73.73
2019-04-07T02:16:57.884Z,74.01
2019-04-07T02:19:42.374Z,73.57
2019-04-07T02:22:19.034Z,73.56
2019-04-07T02:24:51.344Z,74.21
2019-04-07T02:27:32.722Z,73.92
2019-04-07T02:30:25.733Z,73.59
2019-04-07T02:33:14.711Z,73.82
2019-04-07T02:35:50.503Z,74.05
2019-04-07T02:38:31.752Z,74.44
2019-04-07T02:41:04.287Z,74.20
2019-04-07T02:43:55.842Z,74.08
2019-04-07T02:46:44.778Z,74.88
2019-04-07T02:49:17.815Z,74.20
2019-04-07T02:51:53.028Z,74.36
2019-04-07T02:54:25.457Z,74.68
2019-04-07T02:56:57.719Z,74.57
2019-04-07T02:59:35.821Z,74.59
2019-04-07T03:02:20.831Z,74.50
2019-04-07T03:04:56.733Z,74.78
2019-04-07T03:07:47.233Z,75.26
2019-04-07T03:10:22.820Z,75.01
2019-04-07T03:12:55.180Z,75.22
2019-04-07T03:15:34.246Z,74.96
2019-04-07T03:18:18.661Z,75.30
2019-04-07T03:20:53.930Z,74.85
2019-04-07T03:23:38.433Z,74.67
2019-04-07T03:26:27.106Z,73.60
2019-04-07T03:29:05.619Z,74.31
2019-04-07T03:31:48.584Z,73.67
2019-04-07T03:34:24.067Z,74.62
2019-04-07T03:37:30.354Z,74.71
2019-04-07T03:40:02.564Z,74.75
2019-04-07T03:42:47.165Z,74.65
2019-04-07T03:45:20.311Z,74.24
2019-04-07T03:47:58.959Z,74.29
2019-04-07T03:50:31.603Z,74.47
2019-04-07T03:53:20.043Z,74.57
2019-04-07T03:56:04.446Z,74.34
2019-04-07T03:58:37.483Z,74.85
2019-04-07T04:01:19.436Z,74.68
2019-04-07T04:03:57.145Z,74.25
2019-04-07T04:06:46.036Z,74.47
2019-04-07T04:09:24.384Z,74.50
2019-04-07T04:12:03.121Z,74.76
2019-04-07T04:14:52.733Z,74.71
2019-04-07T04:17:23.611Z,75.17
2019-04-07T04:19:55.126Z,75.47
2019-04-07T04:22:26.041Z,75.48
2019-04-07T04:24:57.648Z,75.99
2019-04-07T04:27:28.350Z,75.81
2019-04-07T04:29:58.865Z,75.59
2019-04-07T04:32:29.523Z,75.43
2019-04-07T04:35:00.931Z,75.42
2019-04-07T04:37:40.319Z,75.79
2019-04-07T04:40:07.279Z,75.85
2019-04-07T04:42:38.124Z,75.95
2019-04-07T04:45:08.913Z,75.95
2019-04-07T04:47:39.556Z,75.97
2019-04-07T04:50:10.303Z,75.91
2019-04-07T04:52:42.780Z,75.58
2019-04-07T04:55:15.349Z,76.05
2019-04-07T04:57:45.983Z,76.06
2019-04-07T05:00:18.491Z,75.99
2019-04-07T05:03:02.511Z,75.64
2019-04-07T05:05:37.944Z,75.69
2019-04-07T05:08:09.338Z,76.61
2019-04-07T05:10:40.578Z,78.59
2019-04-07T05:13:17.201Z,78.68
2019-04-07T05:15:48.503Z,77.92
2019-04-07T05:18:19.155Z,76.24
2019-04-07T05:20:49.952Z,76.57
2019-04-07T05:23:55.144Z,76.06
2019-04-07T05:26:26.485Z,76.52
2019-04-07T05:28:58.322Z,76.68
2019-04-07T05:31:29.218Z,76.56
2019-04-07T05:34:00.407Z,76.26
2019-04-07T05:36:31.374Z,76.42
2019-04-07T05:39:02.148Z,76.28
2019-04-07T05:41:32.931Z,76.23
2019-04-07T05:44:04.582Z,76.14
2019-04-07T05:46:38.637Z,75.85
2019-04-07T05:49:15.700Z,75.61
2019-04-07T05:51:45.321Z,75.44
2019-04-07T05:54:20.992Z,75.70
2019-04-07T05:56:53.407Z,75.76
2019-04-07T05:59:26.277Z,75.44
2019-04-07T06:02:00.757Z,75.16
2019-04-07T06:04:29.355Z,74.67
2019-04-07T06:07:00.438Z,74.66
2019-04-07T06:09:33.814Z,74.21
2019-04-07T06:12:14.016Z,74.46
2019-04-07T06:14:46.588Z,74.94
2019-04-07T06:17:16.946Z,73.77
2019-04-07T06:19:47.582Z,74.60
2019-04-07T06:22:28.266Z,73.54
2019-04-07T06:25:01.767Z,73.13
2019-04-07T06:27:31.454Z,72.29
2019-04-07T06:30:10.789Z,71.33
2019-04-07T06:32:43.954Z,71.07
2019-04-07T06:35:14.956Z,70.45
2019-04-07T06:37:46.716Z,70.41
2019-04-07T06:40:20.363Z,70.51
2019-04-07T06:42:49.932Z,69.95
2019-04-07T06:45:25.245Z,69.43
2019-04-07T06:48:09.225Z,68.28
2019-04-07T06:50:58.289Z,67.58
2019-04-07T06:53:48.985Z,67.94
2019-04-07T06:56:33.474Z,67.69
2019-04-07T06:59:38.457Z,67.58
2019-04-07T07:02:45.634Z,67.14
2019-04-07T07:05:51.503Z,66.39
2019-04-07T07:08:44.539Z,65.98
2019-04-07T07:11:28.037Z,65.63
2019-04-07T07:13:54.037Z,65.21
2019-04-07T07:16:32.412Z,64.54
2019-04-07T07:19:05.223Z,63.71
2019-04-07T07:21:43.638Z,62.80
2019-04-07T07:24:25.039Z,62.01
2019-04-07T07:26:51.924Z,62.47
2019-04-07T07:29:26.479Z,61.42
2019-04-07T07:32:00.900Z,61.49
2019-04-07T07:34:28.422Z,61.43
2019-04-07T07:36:59.886Z,60.85
2019-04-07T07:39:36.220Z,61.06
2019-04-07T07:42:07.242Z,62.10
2019-04-07T07:44:45.122Z,61.77
2019-04-07T07:47:41.603Z,61.09
2019-04-07T07:50:30.003Z,60.88
2019-04-07T07:53:04.743Z,60.32
2019-04-07T07:55:42.466Z,61.56
2019-04-07T07:58:13.900Z,60.55
2019-04-07T08:00:52.520Z,59.95
2019-04-07T08:03:30.187Z,59.47
2019-04-07T08:06:04.678Z,57.94
2019-04-07T08:08:35.248Z,58.29
2019-04-07T08:11:06.754Z,58.46
2019-04-07T08:13:44.440Z,58.83
2019-04-07T08:16:19.112Z,58.40
2019-04-07T08:18:49.986Z,57.92
2019-04-07T08:21:22.547Z,58.17
2019-04-07T08:23:57.839Z,56.36
2019-04-07T08:26:33.257Z,55.75
2019-04-07T08:29:06.739Z,56.18
2019-04-07T08:31:45.298Z,55.74
2019-04-07T08:34:16.733Z,55.42
2019-04-07T08:36:48.397Z,56.61
2019-04-07T08:39:25.580Z,54.60
2019-04-07T08:41:53.567Z,53.42
2019-04-07T08:44:30.501Z,53.24
2019-04-07T08:47:02.609Z,51.56
2019-04-07T08:49:41.641Z,51.13
2019-04-07T08:52:13.459Z,50.95
2019-04-07T08:54:52.196Z,51.00
2019-04-07T08:57:30.609Z,50.01
2019-04-07T09:00:17.386Z,50.21
2019-04-07T09:03:01.073Z,50.70
2019-04-07T09:05:27.813Z,48.29
2019-04-07T09:07:57.378Z,47.52
2019-04-07T09:10:32.469Z,47.10
2019-04-07T09:13:12.143Z,48.11
2019-04-07T09:15:59.011Z,46.93
2019-04-07T09:18:32.010Z,46.05
2019-04-07T09:21:20.472Z,44.84
2019-04-07T09:24:05.000Z,42.78
2019-04-07T09:26:46.718Z,42.40
2019-04-07T09:29:24.955Z,42.09
2019-04-07T09:32:17.830Z,41.73
2019-04-07T09:34:55.852Z,41.99
2019-04-07T09:37:28.468Z,41.57
2019-04-07T09:40:20.151Z,40.53
2019-04-07T09:42:56.376Z,39.10
2019-04-07T09:45:33.357Z,39.35
2019-04-07T09:48:23.280Z,38.98
2019-04-07T09:51:08.693Z,38.85
2019-04-07T09:53:41.497Z,38.94
2019-04-07T09:56:32.723Z,38.11
2019-04-07T09:59:20.318Z,38.56
2019-04-07T10:02:13.247Z,40.64
2019-04-07T10:04:47.656Z,38.90
2019-04-07T10:07:25.183Z,39.00
2019-04-07T10:10:13.649Z,38.45
2019-04-07T10:13:00.687Z,38.23
2019-04-07T10:15:55.011Z,38.79
2019-04-07T10:18:44.029Z,38.04
2019-04-07T10:21:30.048Z,38.44
2019-04-07T10:24:25.930Z,38.78
2019-04-07T10:27:27.298Z,39.21
2019-04-07T10:30:04.703Z,38.86
2019-04-07T10:32:53.507Z,37.76
2019-04-07T10:35:30.674Z,37.86
2019-04-07T10:38:37.422Z,38.06
2019-04-07T10:41:16.019Z,38.68
2019-04-07T10:43:55.804Z,38.80
2019-04-07T10:46:28.603Z,38.51
2019-04-07T10:49:07.537Z,39.53
2019-04-07T10:51:56.977Z,38.07
2019-04-07T10:54:29.377Z,38.66
2019-04-07T10:57:02.225Z,37.87
2019-04-07T10:59:41.116Z,37.27
2019-04-07T11:02:19.585Z,38.06
2019-04-07T11:05:02.958Z,37.93
2019-04-07T11:07:51.276Z,37.23
2019-04-07T11:10:40.161Z,37.35
2019-04-07T11:13:15.677Z,36.72
2019-04-07T11:16:08.240Z,37.04
2019-04-07T11:18:57.227Z,36.89
2019-04-07T11:21:47.934Z,36.81
2019-04-07T11:24:31.459Z,37.29
2019-04-07T11:27:29.394Z,36.69
2019-04-07T11:30:05.131Z,36.14
2019-04-07T11:32:54.345Z,35.86
2019-04-07T11:35:35.861Z,36.27
2019-04-07T11:38:10.858Z,35.50
2019-04-07T11:40:50.001Z,35.80
2019-04-07T11:43:30.507Z,35.80
2019-04-07T11:46:03.423Z,35.34
2019-04-07T11:48:40.469Z,36.09
2019-04-07T11:51:16.198Z,35.09
2019-04-07T11:54:03.731Z,35.63
2019-04-07T11:56:46.037Z,34.76
2019-04-07T11:59:36.012Z,34.96
2019-04-07T12:02:27.335Z,34.78
2019-04-07T12:05:16.914Z,35.97
2019-04-07T12:07:56.712Z,34.52
2019-04-07T12:10:34.145Z,34.00
2019-04-07T12:13:10.264Z,34.09
2019-04-07T12:16:10.309Z,34.45
2019-04-07T12:18:51.368Z,33.65
2019-04-07T12:21:38.252Z,34.54
2019-04-07T12:24:13.743Z,33.31
2019-04-07T12:26:56.604Z,32.92
2019-04-07T12:29:41.691Z,33.89
2019-04-07T12:32:42.257Z,33.59
2019-04-07T12:35:27.627Z,33.98
2019-04-07T12:38:10.080Z,35.23
2019-04-07T12:40:59.422Z,34.82
2019-04-07T12:43:27.755Z,34.49
2019-04-07T12:46:19.332Z,34.92
2019-04-07T12:49:10.112Z,34.70
2019-04-07T12:52:04.356Z,35.53
2019-04-07T12:54:37.618Z,34.35
2019-04-07T12:57:27.324Z,34.08
2019-04-07T13:00:13.525Z,33.86
2019-04-07T13:02:47.484Z,34.77
2019-04-07T13:05:22.955Z,33.55
2019-04-07T13:08:01.578Z,34.24
2019-04-07T13:10:40.225Z,33.03
2019-04-07T13:13:15.949Z,34.16
2019-04-07T13:15:58.203Z,33.74
2019-04-07T13:18:46.507Z,33.82
2019-04-07T13:21:30.003Z,34.13
2019-04-07T13:24:06.291Z,34.27
2019-04-07T13:26:38.973Z,34.41
2019-04-07T13:29:14.627Z,34.22
2019-04-07T13:32:06.010Z,34.18
2019-04-07T13:34:38.462Z,34.48
2019-04-07T13:37:23.438Z,34.16
2019-04-07T13:40:05.103Z,34.91
2019-04-07T13:42:43.108Z,34.57
2019-04-07T13:45:24.791Z,34.04
2019-04-07T13:47:57.902Z,34.66
2019-04-07T13:50:45.957Z,34.08
2019-04-07T13:53:36.766Z,34.46
2019-04-07T13:56:18.390Z,34.64
2019-04-07T13:58:56.988Z,34.89
2019-04-07T14:01:36.314Z,35.66
2019-04-07T14:04:17.892Z,34.33
2019-04-07T14:06:50.424Z,34.53
2019-04-07T14:09:32.473Z,34.82
2019-04-07T14:12:11.632Z,35.35
2019-04-07T14:14:45.004Z,35.57
2019-04-07T14:17:27.297Z,35.09
2019-04-07T14:20:16.463Z,35.90
2019-04-07T14:23:05.323Z,35.42
2019-04-07T14:25:55.134Z,34.98
2019-04-07T14:28:45.754Z,35.30
2019-04-07T14:31:18.184Z,35.31
2019-04-07T14:34:07.841Z,35.56
2019-04-07T14:36:40.475Z,35.58
2019-04-07T14:39:37.570Z,35.71
2019-04-07T14:42:26.386Z,36.50
2019-04-07T14:45:12.121Z,35.69
2019-04-07T14:47:48.427Z,35.53
2019-04-07T14:50:37.480Z,35.76
2019-04-07T14:53:17.664Z,35.84
2019-04-07T14:56:02.186Z,35.87
2019-04-07T14:58:33.353Z,35.71
2019-04-07T15:01:16.760Z,34.96
2019-04-07T15:03:48.498Z,34.82
2019-04-07T15:06:19.422Z,34.94
2019-04-07T15:09:10.559Z,35.18
2019-04-07T15:11:46.855Z,35.00
2019-04-07T15:14:18.032Z,35.45
2019-04-07T15:16:49.178Z,35.43
2019-04-07T15:19:21.062Z,35.27
2019-04-07T15:21:55.366Z,35.17
2019-04-07T15:24:30.651Z,34.95
2019-04-07T15:27:01.572Z,35.64
2019-04-07T15:29:38.411Z,35.06
2019-04-07T15:32:07.849Z,35.29
2019-04-07T15:34:42.251Z,34.80
2019-04-07T15:37:14.285Z,35.08
2019-04-07T15:39:52.971Z,35.21
2019-04-07T15:42:35.169Z,35.74
2019-04-07T15:45:03.152Z,35.27
2019-04-07T15:47:40.455Z,35.27
2019-04-07T15:50:14.235Z,36.02
2019-04-07T15:52:47.427Z,35.49
2019-04-07T15:55:18.874Z,35.57
2019-04-07T15:57:54.878Z,35.85
2019-04-07T16:00:24.044Z,35.52
2019-04-07T16:03:00.416Z,35.16
2019-04-07T16:05:37.807Z,35.34
2019-04-07T16:08:13.607Z,35.82
2019-04-07T16:10:45.130Z,35.90
2019-04-07T16:13:19.831Z,35.80
2019-04-07T16:15:57.539Z,35.94
2019-04-07T16:18:37.049Z,36.08
2019-04-07T16:21:12.754Z,36.89
2019-04-07T16:23:52.847Z,35.96
2019-04-07T16:26:30.151Z,36.17
2019-04-07T16:29:01.260Z,35.85
2019-04-07T16:31:32.280Z,35.65
2019-04-07T16:34:10.720Z,36.07
2019-04-07T16:36:43.708Z,35.50
2019-04-07T16:39:19.891Z,36.37
2019-04-07T16:41:53.406Z,35.83
2019-04-07T16:44:43.910Z,35.91
2019-04-07T16:47:20.888Z,35.68
2019-04-07T16:49:48.833Z,36.38
2019-04-07T16:52:20.431Z,36.23
2019-04-07T16:54:52.691Z,36.41
2019-04-07T16:57:28.198Z,36.85
2019-04-07T16:59:58.350Z,36.26
2019-04-07T17:02:29.558Z,37.03
2019-04-07T17:05:01.758Z,35.98
2019-04-07T17:07:44.275Z,36.72
2019-04-07T17:10:13.343Z,37.16
2019-04-07T17:12:44.105Z,37.20
2019-04-07T17:15:19.784Z,36.49
2019-04-07T17:17:53.083Z,36.61
2019-04-07T17:20:27.204Z,36.29
2019-04-07T17:22:56.868Z,36.56
2019-04-07T17:25:33.633Z,36.25
2019-04-07T17:28:07.884Z,36.55
2019-04-07T17:30:39.604Z,36.74
2019-04-07T17:33:11.215Z,37.34
2019-04-07T17:35:45.241Z,37.37
2019-04-07T17:38:23.938Z,36.96
2019-04-07T17:40:56.774Z,37.45
2019-04-07T17:43:40.541Z,37.06
2019-04-07T17:46:10.504Z,38.29
2019-04-07T17:49:15.272Z,38.12
2019-04-07T17:51:57.457Z,37.68
2019-04-07T17:54:54.147Z,37.88
2019-04-07T17:57:42.903Z,37.86
2019-04-07T18:00:18.918Z,37.32
2019-04-07T18:03:09.873Z,38.47
2019-04-07T18:06:04.218Z,37.76
2019-04-07T18:09:02.359Z,38.05
2019-04-07T18:11:31.802Z,38.68
2019-04-07T18:14:20.959Z,39.08
2019-04-07T18:17:18.607Z,38.90
2019-04-07T18:20:09.562Z,39.04
2019-04-07T18:22:54.176Z,39.10
2019-04-07T18:25:43.051Z,39.98
2019-04-07T18:28:21.758Z,39.38
2019-04-07T18:31:13.229Z,38.98
2019-04-07T18:33:53.608Z,39.56
2019-04-07T18:36:45.981Z,40.03
2019-04-07T18:39:35.327Z,40.39
2019-04-07T18:42:18.116Z,40.07
2019-04-07T18:44:55.456Z,40.09
2019-04-07T18:47:45.390Z,41.33
2019-04-07T18:50:25.226Z,41.60
2019-04-07T18:53:09.211Z,41.10
2019-04-07T18:55:58.250Z,40.01
2019-04-07T18:58:42.730Z,40.44
2019-04-07T19:01:18.199Z,40.48
2019-04-07T19:04:02.507Z,41.64
2019-04-07T19:06:48.898Z,42.20
2019-04-07T19:09:35.760Z,41.07
2019-04-07T19:12:14.144Z,41.55
2019-04-07T19:15:08.042Z,41.46
2019-04-07T19:17:55.880Z,42.00
2019-04-07T19:20:28.196Z,41.94
2019-04-07T19:23:04.392Z,42.25
2019-04-07T19:25:45.377Z,44.17
2019-04-07T19:28:37.134Z,43.60
2019-04-07T19:31:29.953Z,43.43
2019-04-07T19:34:35.554Z,44.63
2019-04-07T19:37:08.324Z,44.84
2019-04-07T19:39:56.477Z,45.49
2019-04-07T19:42:37.732Z,45.41
2019-04-07T19:45:22.853Z,46.27
2019-04-07T19:48:16.521Z,47.05
2019-04-07T19:50:55.392Z,47.06
2019-04-07T19:53:34.874Z,47.96
2019-04-07T19:56:25.761Z,47.97
2019-04-07T19:58:58.462Z,48.81
2019-04-07T20:01:44.399Z,48.41
2019-04-07T20:04:32.742Z,48.45
2019-04-07T20:07:18.595Z,48.71
2019-04-07T20:09:51.289Z,48.80
2019-04-07T20:12:36.322Z,49.18
2019-04-07T20:15:24.568Z,49.04
2019-04-07T20:18:05.583Z,49.85
2019-04-07T20:20:43.167Z,49.92
2019-04-07T20:23:19.695Z,49.44
2019-04-07T20:26:10.020Z,50.39
2019-04-07T20:28:46.945Z,50.14
2019-04-07T20:31:28.443Z,50.98
2019-04-07T20:34:04.348Z,51.46
2019-04-07T20:36:42.312Z,51.03
2019-04-07T20:39:30.841Z,51.96
2019-04-07T20:42:05.168Z,52.24
2019-04-07T20:44:58.452Z,52.36
2019-04-07T20:47:36.399Z,52.45
2019-04-07T20:50:10.739Z,51.62
2019-04-07T20:52:42.808Z,52.45
2019-04-07T20:55:19.342Z,52.82
2019-04-07T20:58:17.229Z,53.26
2019-04-07T21:00:55.017Z,53.24
2019-04-07T21:03:24.265Z,53.48
2019-04-07T21:06:25.212Z,53.80
2019-04-07T21:09:03.792Z,54.12
2019-04-07T21:12:06.118Z,54.19
2019-04-07T21:14:44.088Z,54.01
2019-04-07T21:17:35.445Z,55.13
2019-04-07T21:20:27.830Z,54.91
2019-04-07T21:23:05.915Z,54.97
2019-04-07T21:25:39.183Z,54.93
2019-04-07T21:28:21.026Z,55.66
2019-04-07T21:30:58.865Z,55.73
2019-04-07T21:33:49.633Z,56.34
2019-04-07T21:36:28.261Z,56.76
2019-04-07T21:39:08.718Z,56.49
2019-04-07T21:41:59.260Z,56.97
2019-04-07T21:44:43.541Z,56.84
2019-04-07T21:47:33.978Z,57.01
2019-04-07T21:50:10.480Z,56.96
2019-04-07T21:52:55.348Z,56.60
2019-04-07T21:55:30.823Z,57.50
2019-04-07T21:58:27.142Z,57.99
2019-04-07T22:01:11.673Z,58.09
2019-04-07T22:03:49.264Z,58.02
2019-04-07T22:06:29.314Z,58.33
2019-04-07T22:09:07.720Z,58.77
2019-04-07T22:11:44.643Z,58.35
2019-04-07T22:14:16.861Z,58.56
2019-04-07T22:16:49.120Z,58.58
2019-04-07T22:19:24.374Z,58.59
2019-04-07T22:22:16.685Z,58.91
2019-04-07T22:24:47.619Z,58.90
2019-04-07T22:27:28.632Z,58.46
2019-04-07T22:30:06.513Z,58.90
2019-04-07T22:32:54.129Z,58.74
2019-04-07T22:35:26.640Z,59.25
2019-04-07T22:38:03.088Z,59.57
2019-04-07T22:40:38.780Z,59.32
2019-04-07T22:43:07.179Z,59.88
2019-04-07T22:45:39.074Z,60.38
2019-04-07T22:48:10.658Z,60.34
2019-04-07T22:50:41.390Z,60.15
2019-04-07T22:53:33.162Z,60.08
2019-04-07T22:56:06.351Z,60.12
2019-04-07T22:58:36.609Z,60.71
2019-04-07T23:01:07.742Z,61.00
2019-04-07T23:03:45.467Z,60.91
2019-04-07T23:06:16.837Z,61.22
2019-04-07T23:08:55.758Z,61.21
2019-04-07T23:11:27.909Z,61.83
2019-04-07T23:14:04.844Z,62.06
2019-04-07T23:16:36.001Z,61.70
2019-04-07T23:19:06.823Z,61.58
2019-04-07T23:21:37.578Z,61.38
2019-04-07T23:24:08.519Z,61.93
2019-04-07T23:26:39.289Z,61.86
2019-04-07T23:29:15.055Z,61.44
2019-04-07T23:31:51.322Z,61.48
2019-04-07T23:34:22.079Z,61.62
2019-04-07T23:36:57.586Z,62.22
2019-04-07T23:39:31.205Z,62.42
2019-04-07T23:42:02.807Z,62.33
2019-04-07T23:44:33.525Z,62.56
2019-04-07T23:47:05.675Z,62.56
2019-04-07T23:49:37.290Z,62.85
2019-04-07T23:52:08.906Z,62.95
2019-04-07T23:54:39.762Z,63.46
2019-04-07T23:57:11.315Z,63.38
2019-04-07T23:59:42.218Z,63.34
